sensor_id;sensor_type;location;lat;lon;timestamp;pressure;altitude;pressure_sealevel;temperature;humidity
12793;BME280;6460;42.684;23.260;2024-03-23T13:19:46;94059.63;;;20.61;18.64
12793;BME280;6460;42.684;23.260;2024-03-23T13:22:13;94055.22;;;21.71;18.33
12793;BME280;6460;42.684;23.260;2024-03-23T13:24:39;94059.47;;;21.72;18.48
12793;BME280;6460;42.684;23.260;2024-03-23T13:27:06;94059.44;;;20.39;19.05
12793;BME280;6460;42.684;23.260;2024-03-23T13:29:33;94054.28;;;20.41;19.42
12793;BME280;6460;42.684;23.260;2024-03-23T13:32:01;94045.53;;;20.01;20.01
12793;BME280;6460;42.684;23.260;2024-03-23T13:34:27;94041.09;;;21.35;20.06
12793;BME280;6460;42.684;23.260;2024-03-23T13:36:56;94034.53;;;21.70;18.37
12793;BME280;6460;42.684;23.260;2024-03-23T13:39:24;94040.53;;;19.83;20.07
12793;BME280;6460;42.684;23.260;2024-03-23T13:41:53;94024.09;;;20.89;19.74
12793;BME280;6460;42.684;23.260;2024-03-23T13:44:20;94024.81;;;20.77;19.83
12793;BME280;6460;42.684;23.260;2024-03-23T13:46:47;94022.88;;;20.49;21.20
12793;BME280;6460;42.684;23.260;2024-03-23T13:49:24;94020.97;;;21.54;19.40
12793;BME280;6460;42.684;23.260;2024-03-23T13:51:52;94029.72;;;20.25;21.26
12793;BME280;6460;42.684;23.260;2024-03-23T13:54:19;94028.59;;;19.61;20.74
12793;BME280;6460;42.684;23.260;2024-03-23T13:56:48;94013.56;;;20.01;20.60
12793;BME280;6460;42.684;23.260;2024-03-23T13:59:16;94023.00;;;19.68;20.62
12793;BME280;6460;42.684;23.260;2024-03-23T14:01:43;94024.94;;;19.16;21.63
12793;BME280;6460;42.684;23.260;2024-03-23T14:04:10;94012.56;;;19.79;21.63
12793;BME280;6460;42.684;23.260;2024-03-23T14:06:38;94001.97;;;19.97;20.92
12793;BME280;6460;42.684;23.260;2024-03-23T14:09:05;93999.28;;;20.96;20.51
12793;BME280;6460;42.684;23.260;2024-03-23T14:11:35;93993.59;;;21.03;20.06
12793;BME280;6460;42.684;23.260;2024-03-23T14:14:02;93991.59;;;22.39;19.68
12793;BME280;6460;42.684;23.260;2024-03-23T14:16:30;93992.66;;;21.10;20.73
12793;BME280;6460;42.684;23.260;2024-03-23T14:22:19;93985.63;;;22.19;20.43
12793;BME280;6460;42.684;23.260;2024-03-23T14:24:47;93994.63;;;21.60;20.22
12793;BME280;6460;42.684;23.260;2024-03-23T15:56:07;93942.28;;;19.22;23.67
12793;BME280;6460;42.684;23.260;2024-03-23T16:01:37;93931.09;;;18.29;24.44
12793;BME280;6460;42.684;23.260;2024-03-23T16:04:04;93935.94;;;18.02;25.07
12793;BME280;6460;42.684;23.260;2024-03-23T16:10:18;93943.78;;;17.76;25.04
12793;BME280;6460;42.684;23.260;2024-03-23T16:22:48;93933.13;;;17.16;26.02
12793;BME280;6460;42.684;23.260;2024-03-23T16:25:15;93930.19;;;17.07;26.27
12793;BME280;6460;42.684;23.260;2024-03-23T16:27:41;93939.16;;;16.77;27.02
12793;BME280;6460;42.684;23.260;2024-03-23T16:30:10;93935.41;;;16.67;27.10
12793;BME280;6460;42.684;23.260;2024-03-23T16:32:36;93934.97;;;16.42;27.69
12793;BME280;6460;42.684;23.260;2024-03-23T16:35:04;93934.56;;;16.40;27.85
12793;BME280;6460;42.684;23.260;2024-03-23T16:37:30;93929.16;;;16.40;27.78
12793;BME280;6460;42.684;23.260;2024-03-23T16:40:00;93937.19;;;16.47;27.94
12793;BME280;6460;42.684;23.260;2024-03-23T16:42:26;93933.22;;;16.59;28.01
12793;BME280;6460;42.684;23.260;2024-03-23T16:44:55;93932.75;;;16.33;28.31
12793;BME280;6460;42.684;23.260;2024-03-23T16:47:21;93931.63;;;16.61;28.21
12793;BME280;6460;42.684;23.260;2024-03-23T16:49:49;93930.91;;;16.57;28.42
12793;BME280;6460;42.684;23.260;2024-03-23T16:52:15;93931.53;;;16.68;27.96
12793;BME280;6460;42.684;23.260;2024-03-23T16:54:46;93933.91;;;16.63;28.12
12793;BME280;6460;42.684;23.260;2024-03-23T16:57:33;93935.50;;;16.60;28.49
12793;BME280;6460;42.684;23.260;2024-03-23T17:10:42;93917.03;;;15.54;30.68
12793;BME280;6460;42.684;23.260;2024-03-23T17:41:06;93933.66;;;15.04;30.90
12793;BME280;6460;42.684;23.260;2024-03-23T17:43:38;93923.31;;;14.92;31.62
12793;BME280;6460;42.684;23.260;2024-03-23T18:24:18;93932.31;;;14.78;31.67
12793;BME280;6460;42.684;23.260;2024-03-23T18:54:22;93948.06;;;14.14;33.95
12793;BME280;6460;42.684;23.260;2024-03-23T18:57:02;93939.25;;;14.07;34.46
12793;BME280;6460;42.684;23.260;2024-03-23T18:59:28;93938.44;;;14.13;33.93
12793;BME280;6460;42.684;23.260;2024-03-23T19:01:56;93946.97;;;13.98;34.58
12793;BME280;6460;42.684;23.260;2024-03-23T19:04:22;93949.66;;;14.05;34.34
12793;BME280;6460;42.684;23.260;2024-03-23T19:06:49;93949.72;;;13.94;34.57
12793;BME280;6460;42.684;23.260;2024-03-23T19:09:17;93945.06;;;13.98;34.31
12793;BME280;6460;42.684;23.260;2024-03-23T19:11:44;93951.56;;;14.15;34.12
12793;BME280;6460;42.684;23.260;2024-03-23T19:14:11;93951.91;;;14.20;33.96
12793;BME280;6460;42.684;23.260;2024-03-23T19:16:37;93955.50;;;13.93;34.63
12793;BME280;6460;42.684;23.260;2024-03-23T19:19:05;93945.47;;;13.90;34.94
12793;BME280;6460;42.684;23.260;2024-03-23T19:21:31;93947.81;;;13.88;35.10
12793;BME280;6460;42.684;23.260;2024-03-23T19:23:58;93950.84;;;14.00;35.22
12793;BME280;6460;42.684;23.260;2024-03-23T19:26:26;93945.13;;;13.77;35.43
12793;BME280;6460;42.684;23.260;2024-03-23T19:28:54;93943.88;;;14.03;34.09
12793;BME280;6460;42.684;23.260;2024-03-23T19:31:20;93949.31;;;13.96;35.09
12793;BME280;6460;42.684;23.260;2024-03-23T19:33:48;93937.75;;;13.92;35.13
12793;BME280;6460;42.684;23.260;2024-03-23T19:36:14;93938.91;;;13.94;34.60
12793;BME280;6460;42.684;23.260;2024-03-23T19:38:41;93942.34;;;13.95;34.68
12793;BME280;6460;42.684;23.260;2024-03-23T19:41:08;93950.09;;;13.93;34.78
12793;BME280;6460;42.684;23.260;2024-03-23T19:43:37;93944.59;;;14.17;34.91
12793;BME280;6460;42.684;23.260;2024-03-23T19:46:03;93950.78;;;14.14;35.09
12793;BME280;6460;42.684;23.260;2024-03-23T19:48:30;93940.78;;;14.08;35.39
12793;BME280;6460;42.684;23.260;2024-03-23T19:50:57;93945.47;;;13.97;36.07
12793;BME280;6460;42.684;23.260;2024-03-23T19:53:24;93946.97;;;13.98;35.87
12793;BME280;6460;42.684;23.260;2024-03-23T19:55:55;93939.25;;;14.03;36.02
12793;BME280;6460;42.684;23.260;2024-03-23T19:58:22;93954.38;;;13.83;36.59
12793;BME280;6460;42.684;23.260;2024-03-23T20:00:50;93944.00;;;13.67;37.18
12793;BME280;6460;42.684;23.260;2024-03-23T20:03:17;93940.97;;;13.37;37.04
12793;BME280;6460;42.684;23.260;2024-03-23T20:05:43;93951.41;;;13.14;37.35
12793;BME280;6460;42.684;23.260;2024-03-23T20:08:11;93943.28;;;12.79;38.51
12793;BME280;6460;42.684;23.260;2024-03-23T20:10:37;93945.56;;;12.62;39.05
